Time;durP1;ratioP1;P1;durP2;ratioP2;P2;SDS_P1;SDS_P2;PMS_P1;PMS_P2;Temp;Humidity;BMP_temperature;BMP_pressure;BME280_temperature;BME280_humidity;BME280_pressure;Samples;Min_cycle;Max_cycle;Signal;HPM_P1;HPM_P2
2023/08/28 00:02:23;;;;;;;19.35;9.75;;;25.80;68.40;;;;;;5077146;28;20032;-87
2023/08/28 00:04:49;;;;;;;19.80;9.65;;;25.70;68.60;;;;;;5077028;28;20031;-87
2023/08/28 00:07:15;;;;;;;20.42;9.77;;;25.70;69.20;;;;;;5077467;28;20089;-87
2023/08/28 00:09:41;;;;;;;22.35;11.07;;;25.60;69.30;;;;;;5077079;28;20138;-88
2023/08/28 00:12:07;;;;;;;18.25;9.77;;;25.60;69.80;;;;;;5076953;28;20423;-87
2023/08/28 00:14:33;;;;;;;20.88;9.57;;;25.50;70.10;;;;;;5077401;28;20111;-89
2023/08/28 00:16:59;;;;;;;20.65;9.73;;;25.50;70.70;;;;;;5077226;28;20062;-87
2023/08/28 00:19:25;;;;;;;19.42;9.60;;;25.40;71.40;;;;;;5076585;28;20115;-86
2023/08/28 00:21:51;;;;;;;20.13;10.15;;;25.40;72.10;;;;;;5077080;28;20024;-88
2023/08/28 00:24:16;;;;;;;17.67;9.25;;;25.30;72.50;;;;;;5076878;28;20028;-86
2023/08/28 00:26:42;;;;;;;22.67;9.23;;;25.30;72.70;;;;;;5076588;28;20024;-88
2023/08/28 00:29:08;;;;;;;19.92;9.50;;;25.30;73.20;;;;;;5077029;28;20492;-87
2023/08/28 00:31:34;;;;;;;21.67;9.68;;;25.20;73.40;;;;;;5076670;28;20050;-88
2023/08/28 00:34:00;;;;;;;20.92;9.75;;;25.20;73.80;;;;;;5076469;28;20464;-86
2023/08/28 00:36:26;;;;;;;18.15;8.73;;;25.10;74.20;;;;;;5077199;28;20123;-86
2023/08/28 00:38:51;;;;;;;21.30;9.05;;;25.10;75.20;;;;;;5076676;28;20031;-87
2023/08/28 00:41:17;;;;;;;21.27;8.30;;;25.10;75.80;;;;;;5073181;28;20115;-88
2023/08/28 00:43:43;;;;;;;15.98;9.15;;;25.00;75.60;;;;;;5073522;28;20470;-88
2023/08/28 00:46:10;;;;;;;19.25;9.13;;;25.00;75.80;;;;;;5077028;28;20118;-88
2023/08/28 00:48:36;;;;;;;16.85;8.55;;;25.00;76.50;;;;;;5076466;28;20044;-89
2023/08/28 00:51:03;;;;;;;16.48;8.00;;;24.90;76.60;;;;;;5077077;28;20031;-89
2023/08/28 00:53:29;;;;;;;22.58;8.65;;;24.90;77.50;;;;;;5076690;28;20070;-90
2023/08/28 00:55:56;;;;;;;16.27;8.30;;;24.80;77.80;;;;;;5076560;28;20466;-89
2023/08/28 00:58:22;;;;;;;16.70;6.82;;;24.80;78.90;;;;;;5076677;28;20393;-87
2023/08/28 01:00:48;;;;;;;16.52;7.78;;;24.80;78.20;;;;;;5076089;28;20024;-89
2023/08/28 01:03:14;;;;;;;19.58;7.93;;;24.80;79.90;;;;;;5076467;28;20052;-89
2023/08/28 01:06:00;;;;;;;17.58;6.70;;;24.70;80.70;;;;;;5076791;28;20039;-88
2023/08/28 01:08:44;;;;;;;16.38;7.20;;;24.70;80.50;;;;;;5075508;28;20070;-88
2023/08/28 01:11:29;;;;;;;13.32;7.38;;;24.70;79.80;;;;;;5084331;28;20055;-87
2023/08/28 01:14:04;;;;;;;11.20;7.57;;;24.70;81.20;;;;;;5055411;28;20024;-90
2023/08/28 01:16:32;;;;;;;13.75;7.97;;;24.70;82.50;;;;;;5076342;28;20101;-89
2023/08/28 01:18:59;;;;;;;12.48;7.32;;;24.60;84.00;;;;;;5075769;28;20032;-89
2023/08/28 01:21:25;;;;;;;14.00;7.00;;;24.50;85.20;;;;;;5076453;28;20458;-90
2023/08/28 01:24:04;;;;;;;19.55;7.22;;;24.40;86.60;;;;;;5076085;28;20064;-89
2023/08/28 01:26:31;;;;;;;13.60;8.05;;;24.40;89.30;;;;;;5076509;28;20028;-91
2023/08/28 01:28:57;;;;;;;12.38;7.72;;;24.30;90.90;;;;;;5076063;28;20047;-87
2023/08/28 01:31:23;;;;;;;10.95;6.90;;;24.30;91.10;;;;;;5075904;28;20035;-88
2023/08/28 01:33:51;;;;;;;13.27;7.50;;;24.30;92.00;;;;;;5076323;28;20021;-88
2023/08/28 01:36:17;;;;;;;14.65;7.15;;;24.30;92.40;;;;;;5075693;28;20378;-88
2023/08/28 01:38:55;;;;;;;15.68;7.32;;;24.30;93.40;;;;;;5075847;28;20470;-87
2023/08/28 01:41:23;;;;;;;13.13;6.70;;;24.30;94.10;;;;;;5076089;28;20032;-86
2023/08/28 01:43:54;;;;;;;13.55;6.80;;;24.30;94.40;;;;;;5075473;28;20118;-89
2023/08/28 01:46:20;;;;;;;11.88;7.20;;;24.20;94.60;;;;;;5075687;28;20020;-88
2023/08/28 01:48:53;;;;;;;14.88;7.68;;;24.20;95.40;;;;;;5075789;28;20470;-86
2023/08/28 01:51:20;;;;;;;15.15;7.68;;;24.20;95.40;;;;;;5075284;28;20035;-88
2023/08/28 01:53:50;;;;;;;15.50;7.32;;;24.20;96.40;;;;;;5075603;28;20421;-89
2023/08/28 01:56:16;;;;;;;13.30;7.00;;;24.40;96.90;;;;;;5066913;28;20119;-89
2023/08/28 01:58:46;;;;;;;15.93;7.00;;;24.20;97.30;;;;;;5069623;28;20114;-88
2023/08/28 02:01:12;;;;;;;13.38;7.40;;;24.10;97.60;;;;;;5070767;28;20039;-87
2023/08/28 02:03:39;;;;;;;12.85;7.20;;;24.10;98.70;;;;;;5075190;28;20020;-86
2023/08/28 02:06:08;;;;;;;12.85;6.68;;;24.10;99.40;;;;;;5075730;28;20024;-87
2023/08/28 02:08:34;;;;;;;13.10;7.25;;;24.10;99.30;;;;;;5075400;28;20119;-86
2023/08/28 02:11:00;;;;;;;18.20;8.23;;;24.00;99.70;;;;;;5074972;28;20210;-85
2023/08/28 02:13:26;;;;;;;15.82;6.97;;;24.00;99.90;;;;;;5075337;28;20039;-86
2023/08/28 02:15:52;;;;;;;15.20;6.90;;;24.00;99.90;;;;;;5075148;28;20355;-86
2023/08/28 02:18:18;;;;;;;13.82;7.97;;;24.00;99.90;;;;;;5074777;28;20028;-85
2023/08/28 02:20:45;;;;;;;12.65;7.00;;;24.00;99.90;;;;;;5075198;28;20024;-85
2023/08/28 02:23:11;;;;;;;15.82;7.13;;;24.00;99.90;;;;;;5074712;28;20028;-86
2023/08/28 02:25:44;;;;;;;15.55;7.63;;;24.00;99.90;;;;;;5074793;28;20073;-87
2023/08/28 02:28:10;;;;;;;13.30;7.20;;;24.00;99.90;;;;;;5093175;28;20036;-86
2023/08/28 02:30:36;;;;;;;18.30;7.95;;;24.00;99.90;;;;;;5077558;28;20027;-86
2023/08/28 02:33:01;;;;;;;15.90;8.35;;;24.00;99.90;;;;;;5078280;28;20034;-86
2023/08/28 02:35:27;;;;;;;13.88;7.18;;;24.00;99.90;;;;;;5079138;28;20047;-85
2023/08/28 02:37:53;;;;;;;12.60;7.20;;;24.00;99.90;;;;;;5078924;28;20036;-86
2023/08/28 02:40:19;;;;;;;18.67;7.30;;;24.00;99.90;;;;;;5078426;28;20020;-89
2023/08/28 02:42:45;;;;;;;15.82;7.38;;;23.90;99.90;;;;;;5079198;28;20024;-89
2023/08/28 02:45:11;;;;;;;13.07;7.43;;;23.90;99.90;;;;;;5067620;28;20381;-87
2023/08/28 02:47:37;;;;;;;12.23;6.68;;;23.80;99.90;;;;;;5078613;28;20044;-87
2023/08/28 02:50:04;;;;;;;16.92;7.68;;;23.70;99.90;;;;;;5079126;28;20035;-89
2023/08/28 02:52:30;;;;;;;17.67;7.07;;;23.70;99.90;;;;;;5079068;28;20028;-88
2023/08/28 02:54:56;;;;;;;11.63;7.18;;;23.70;99.90;;;;;;5078747;28;20017;-87
2023/08/28 02:57:22;;;;;;;11.45;7.63;;;23.60;99.90;;;;;;5079117;28;20374;-89
2023/08/28 02:59:48;;;;;;;15.90;7.45;;;23.50;99.90;;;;;;5078647;28;20493;-89
2023/08/28 03:02:14;;;;;;;14.70;8.18;;;23.50;99.90;;;;;;5079032;28;20024;-87
2023/08/28 03:04:42;;;;;;;13.75;7.68;;;23.40;99.90;;;;;;5078852;28;20119;-91
2023/08/28 03:07:08;;;;;;;15.70;7.40;;;23.40;99.90;;;;;;5078833;28;20028;-88
2023/08/28 03:09:34;;;;;;;14.43;7.18;;;23.40;99.90;;;;;;5078664;28;20062;-91
2023/08/28 03:12:03;;;;;;;23.08;7.65;;;23.40;99.90;;;;;;5078729;28;20035;-88
2023/08/28 03:14:53;;;;;;;14.63;7.00;;;23.40;99.90;;;;;;5078602;28;20032;-90
2023/08/28 03:17:54;;;;;;;17.05;7.20;;;23.40;99.90;;;;;;5087866;28;20059;-89
2023/08/28 03:20:41;;;;;;;19.45;7.63;;;23.50;99.90;;;;;;5076834;28;20051;-90
2023/08/28 03:23:09;;;;;;;13.85;7.90;;;23.40;99.90;;;;;;5083504;28;20024;-90
2023/08/28 03:25:36;;;;;;;14.02;7.82;;;23.40;99.90;;;;;;5078534;28;20474;-88
2023/08/28 03:31:36;;;;;;;15.52;7.75;;;23.40;99.90;;;;;;5014358;28;20117;-90
2023/08/28 03:34:11;;;;;;;19.75;7.68;;;23.40;99.90;;;;;;4998378;28;20061;-88
2023/08/28 03:36:41;;;;;;;11.50;7.28;;;23.40;99.90;;;;;;5010419;28;20176;-88
2023/08/28 03:39:07;;;;;;;15.68;7.32;;;23.30;99.90;;;;;;5004531;28;20037;-87
2023/08/28 03:41:36;;;;;;;18.60;7.47;;;23.40;99.90;;;;;;4999077;28;20033;-89
2023/08/28 03:44:05;;;;;;;14.45;7.40;;;23.40;99.90;;;;;;5006277;28;20026;-88
2023/08/28 03:46:34;;;;;;;22.30;7.18;;;23.40;99.90;;;;;;5011334;28;20084;-87
2023/08/28 03:49:00;;;;;;;18.10;7.22;;;23.40;99.90;;;;;;5014082;28;20041;-88
2023/08/28 03:51:25;;;;;;;11.90;7.15;;;23.40;99.90;;;;;;5008735;28;20030;-87
2023/08/28 03:53:51;;;;;;;11.25;6.95;;;23.40;99.90;;;;;;5004663;28;20062;-88
2023/08/28 03:56:17;;;;;;;13.75;6.97;;;23.40;99.90;;;;;;5018413;28;20037;-87
2023/08/28 03:58:43;;;;;;;13.55;6.82;;;23.40;99.90;;;;;;5005900;28;20031;-87
2023/08/28 04:01:08;;;;;;;15.20;7.80;;;23.40;99.90;;;;;;5006268;28;20044;-87
2023/08/28 04:03:34;;;;;;;18.80;7.43;;;23.30;99.90;;;;;;5001959;28;20108;-86
2023/08/28 04:07:02;;;;;;;17.58;7.35;;;23.30;99.90;;;;;;5003888;28;20033;-86
2023/08/28 04:09:44;;;;;;;22.50;8.15;;;23.50;99.90;;;;;;5074043;28;20521;-90
2023/08/28 08:34:33;;;;;;;15.63;6.68;;;;;;;;;;5113715;27;20504;-88
2023/08/28 08:37:47;;;;;;;13.90;5.93;;;;;;;;;;5110405;28;20024;-89
2023/08/28 08:40:14;;;;;;;21.17;6.72;;;;;;;;;;5051717;28;20036;-86
2023/08/28 08:42:40;;;;;;;12.13;5.38;;;;;;;;;;5051990;28;20032;-90
2023/08/28 08:45:09;;;;;;;17.13;6.32;;;;;;;;;;5032428;28;20029;-87
2023/08/28 08:47:36;;;;;;;17.33;6.85;;;;;;;;;;5049305;28;20017;-86
2023/08/28 08:59:56;;;;;;;18.45;8.38;;;;;;;;;;5037813;28;20099;-86
2023/08/28 09:02:26;;;;;;;15.90;6.60;;;;;;;;;;5007615;28;20040;-87
2023/08/28 09:04:52;;;;;;;19.58;6.32;;;;;;;;;;4995186;28;20121;-85
2023/08/28 09:07:22;;;;;;;18.80;7.03;;;;;;;;;;5000443;28;20515;-89
2023/08/28 09:13:10;;;;;;;15.55;6.90;;;;;;;;;;4967682;28;20043;-87
2023/08/28 09:15:39;;;;;;;11.88;6.45;;;;;;;;;;4966328;28;20480;-87
2023/08/28 09:18:05;;;;;;;14.32;6.63;;;;;;;;;;4947260;29;20035;-87
2023/08/28 09:20:32;;;;;;;15.27;6.88;;;;;;;;;;4940944;29;20023;-86
2023/08/28 09:22:58;;;;;;;11.77;6.60;;;;;;;;;;4922986;29;20067;-85
2023/08/28 09:25:26;;;;;;;16.52;6.57;;;;;;;;;;4933358;29;20066;-86
2023/08/28 09:27:53;;;;;;;15.15;6.47;;;;;;;;;;4931947;28;20033;-87
2023/08/28 09:30:37;;;;;;;21.60;7.35;;;;;;;;;;4933621;29;20094;-85
2023/08/28 09:33:05;;;;;;;18.70;7.20;;;;;;;;;;4939960;29;20063;-88
2023/08/28 09:35:44;;;;;;;15.13;6.72;;;;;;;;;;4931137;29;20044;-86
2023/08/28 09:38:11;;;;;;;15.95;6.72;;;;;;;;;;4974991;28;20027;-87
2023/08/28 09:40:41;;;;;;;16.40;7.53;;;;;;;;;;4991302;28;20033;-86
2023/08/28 09:43:14;;;;;;;19.27;7.15;;;;;;;;;;4991291;28;20124;-87
2023/08/28 09:45:41;;;;;;;11.38;6.70;;;;;;;;;;4966959;28;20406;-88
2023/08/28 09:48:08;;;;;;;18.20;7.35;;;;;;;;;;4967083;28;20058;-84
2023/08/28 09:50:35;;;;;;;15.32;7.50;;;;;;;;;;5089671;28;20392;-87
2023/08/28 09:53:07;;;;;;;21.75;7.32;;;;;;;;;;5091852;28;20359;-85
2023/08/28 09:55:40;;;;;;;15.75;6.43;;;;;;;;;;5068326;28;20437;-86
2023/08/28 09:58:10;;;;;;;16.13;5.45;;;;;;;;;;5079641;28;20107;-84
2023/08/28 10:00:39;;;;;;;16.30;5.93;;;;;;;;;;5073730;28;20047;-86
2023/08/28 10:03:05;;;;;;;15.57;6.35;;;;;;;;;;5077412;28;20093;-83
2023/08/28 10:05:33;;;;;;;16.05;6.20;;;;;;;;;;5075190;28;20035;-87
2023/08/28 10:08:02;;;;;;;15.75;6.95;;;;;;;;;;5075527;28;20025;-85
2023/08/28 10:10:30;;;;;;;12.50;7.15;;;;;;;;;;5074038;28;20024;-86
2023/08/28 10:12:56;;;;;;;14.50;6.45;;;;;;;;;;5079607;28;20035;-85
2023/08/28 10:15:23;;;;;;;23.98;7.07;;;;;;;;;;5076051;28;20059;-85
2023/08/28 10:17:50;;;;;;;15.52;6.78;;;;;;;;;;5074483;28;20118;-85
2023/08/28 10:20:18;;;;;;;16.20;7.40;;;;;;;;;;5087602;28;20081;-83
2023/08/28 10:22:45;;;;;;;15.32;6.22;;;;;;;;;;5090896;28;20122;-87
2023/08/28 10:25:13;;;;;;;12.57;6.60;;;;;;;;;;5094481;28;20055;-84
2023/08/28 10:27:40;;;;;;;14.30;6.53;;;;;;;;;;5094796;28;20031;-86
2023/08/28 10:30:08;;;;;;;18.35;6.22;;;;;;;;;;5094738;28;20535;-86
2023/08/28 10:32:35;;;;;;;23.27;7.70;;;;;;;;;;5093272;28;20481;-85
2023/08/28 10:35:02;;;;;;;16.77;6.10;;;;;;;;;;5094360;28;20036;-85
2023/08/28 10:37:28;;;;;;;12.05;6.13;;;;;;;;;;5094699;28;20111;-85
2023/08/28 10:39:57;;;;;;;21.73;7.30;;;;;;;;;;5093972;28;20039;-84
2023/08/28 10:42:24;;;;;;;11.95;6.38;;;;;;;;;;5094258;28;20032;-85
2023/08/28 10:44:50;;;;;;;19.42;6.30;;;;;;;;;;5094392;28;20032;-87
2023/08/28 10:47:18;;;;;;;21.15;6.78;;;;;;;;;;5090494;28;20107;-86
2023/08/28 10:49:44;;;;;;;30.30;5.90;;;;;;;;;;5074033;28;20031;-86
2023/08/28 10:52:10;;;;;;;17.40;6.75;;;;;;;;;;5078428;28;20123;-85
2023/08/28 10:54:37;;;;;;;23.80;7.00;;;;;;;;;;5082509;28;20020;-86
2023/08/28 10:57:10;;;;;;;18.38;5.88;;;;;;;;;;5093218;28;20085;-86
2023/08/28 10:59:43;;;;;;;22.02;6.35;;;;;;;;;;5082693;28;20028;-86
2023/08/28 11:02:10;;;;;;;14.45;6.32;;;;;;;;;;5075169;28;20416;-85
2023/08/28 11:04:38;;;;;;;12.38;6.40;;;;;;;;;;5076675;28;20474;-87
2023/08/28 11:07:04;;;;;;;19.25;6.47;;;;;;;;;;5085587;28;20036;-84
2023/08/28 11:09:32;;;;;;;14.43;6.97;;;;;;;;;;5082745;28;20033;-83
2023/08/28 11:11:58;;;;;;;14.35;6.32;;;;;;;;;;5071907;28;20040;-82
2023/08/28 11:14:31;;;;;;;16.25;7.10;;;;;;;;;;5075768;28;20055;-83
2023/08/28 11:17:10;;;;;;;19.73;6.35;;;;;;;;;;5075718;28;20017;-82
2023/08/28 11:19:55;;;;;;;16.63;6.05;;;;;;;;;;5070489;28;20032;-84
2023/08/28 11:22:33;;;;;;;18.05;6.25;;;;;;;;;;5062505;28;20111;-85
2023/08/28 11:25:00;;;;;;;19.52;6.28;;;;;;;;;;5059232;28;20505;-86
2023/08/28 11:27:34;;;;;;;18.25;6.50;;;;;;;;;;5076765;28;20039;-80
2023/08/28 11:30:05;;;;;;;12.43;5.95;;;;;;;;;;5070811;28;20616;-81
2023/08/28 11:32:31;;;;;;;13.17;5.93;;;;;;;;;;5069764;28;20450;-84
2023/08/28 11:35:01;;;;;;;15.63;6.35;;;;;;;;;;5058450;28;20037;-83
2023/08/28 11:37:34;;;;;;;16.33;6.50;;;;;;;;;;5063949;28;20024;-82
2023/08/28 11:40:00;;;;;;;18.60;6.80;;;;;;;;;;5071087;28;20032;-82
2023/08/28 11:42:26;;;;;;;16.15;6.88;;;;;;;;;;5071910;28;20025;-82
2023/08/28 11:44:53;;;;;;;13.40;5.70;;;;;;;;;;5073313;28;20056;-82
2023/08/28 11:47:30;;;;;;;15.48;5.88;;;;;;;;;;5072375;28;20055;-85
2023/08/28 11:49:57;;;;;;;13.43;6.95;;;;;;;;;;5073338;28;20103;-84
2023/08/28 11:52:24;;;;;;;22.27;6.43;;;;;;;;;;5089822;28;20363;-87
2023/08/28 11:54:51;;;;;;;17.13;6.43;;;;;;;;;;5088036;28;20111;-86
2023/08/28 11:57:18;;;;;;;16.95;5.57;;;;;;;;;;5079179;28;20028;-83
2023/08/28 11:59:48;;;;;;;15.30;6.30;;;;;;;;;;5074845;28;20453;-84
2023/08/28 12:02:15;;;;;;;14.30;6.45;;;;;;;;;;5074511;28;20037;-85
2023/08/28 12:04:42;;;;;;;17.05;5.97;;;;;;;;;;5074272;28;20038;-86
2023/08/28 12:07:21;;;;;;;19.38;6.00;;;;;;;;;;5072458;28;20074;-88
2023/08/28 12:09:48;;;;;;;14.18;5.82;;;;;;;;;;5071670;28;20017;-84
2023/08/28 12:12:15;;;;;;;18.30;6.13;;;;;;;;;;5073574;28;20032;-83
2023/08/28 12:14:45;;;;;;;13.80;5.90;;;;;;;;;;5077438;28;20025;-85
2023/08/28 12:17:18;;;;;;;21.20;7.32;;;;;;;;;;5085389;28;20062;-85
2023/08/28 12:19:45;;;;;;;18.52;6.45;;;;;;;;;;5082644;28;20055;-83
2023/08/28 12:22:12;;;;;;;16.25;6.10;;;;;;;;;;5080667;28;20032;-84
2023/08/28 12:24:43;;;;;;;16.60;6.70;;;;;;;;;;5091238;28;20028;-82
2023/08/28 12:27:10;;;;;;;18.63;6.05;;;;;;;;;;5065067;28;20035;-82
2023/08/28 12:29:36;;;;;;;23.83;6.90;;;;;;;;;;5071323;28;20029;-83
2023/08/28 12:32:06;;;;;;;20.92;5.78;;;;;;;;;;5069142;28;20082;-86
2023/08/28 12:34:33;;;;;;;16.42;6.45;;;;;;;;;;5075176;28;20045;-83
2023/08/28 12:37:09;;;;;;;14.18;6.00;;;;;;;;;;5071624;28;20024;-81
2023/08/28 12:39:36;;;;;;;17.58;6.03;;;;;;;;;;5071845;28;20033;-80
2023/08/28 12:42:03;;;;;;;15.70;6.00;;;;;;;;;;5083684;28;20515;-83
2023/08/28 12:44:30;;;;;;;16.85;6.05;;;;;;;;;;5075133;28;20545;-85
2023/08/28 12:46:57;;;;;;;11.40;5.85;;;;;;;;;;5072908;28;20031;-85
2023/08/28 12:49:23;;;;;;;18.33;5.60;;;;;;;;;;5073978;28;20063;-85
2023/08/28 12:51:50;;;;;;;17.38;6.30;;;;;;;;;;5073697;28;20466;-85
2023/08/28 12:54:19;;;;;;;13.32;5.97;;;;;;;;;;5091193;28;20081;-85
2023/08/28 12:56:46;;;;;;;14.70;6.25;;;;;;;;;;5091212;28;20466;-85
2023/08/28 12:59:13;;;;;;;15.18;6.05;;;;;;;;;;5081595;28;20074;-85
2023/08/28 13:01:41;;;;;;;15.05;4.65;;;;;;;;;;5079710;28;20032;-85
2023/08/28 13:04:07;;;;;;;18.55;5.78;;;;;;;;;;5070314;28;20025;-84
2023/08/28 13:06:33;;;;;;;14.82;6.38;;;;;;;;;;5075456;28;20028;-85
2023/08/28 13:08:59;;;;;;;16.02;5.28;;;;;;;;;;5089202;28;20481;-86
2023/08/28 13:11:26;;;;;;;19.63;5.55;;;;;;;;;;5091861;28;20024;-85
2023/08/28 13:13:52;;;;;;;19.98;5.30;;;;;;;;;;5086538;28;20111;-86
2023/08/28 13:16:18;;;;;;;15.25;5.32;;;;;;;;;;5073031;28;20084;-84
2023/08/28 13:18:44;;;;;;;26.50;5.40;;;;;;;;;;5079662;28;20051;-86
2023/08/28 13:21:11;;;;;;;12.88;6.10;;;;;;;;;;5085137;28;20111;-87
2023/08/28 13:23:37;;;;;;;19.65;6.35;;;;;;;;;;5094134;28;20028;-83
2023/08/28 13:26:03;;;;;;;17.85;7.45;;;;;;;;;;5077020;28;20377;-85
2023/08/28 13:28:29;;;;;;;15.70;5.68;;;;;;;;;;5083484;28;20048;-82
2023/08/28 13:30:55;;;;;;;15.18;5.32;;;;;;;;;;5091058;28;20027;-83
2023/08/28 13:33:22;;;;;;;15.52;5.78;;;;;;;;;;5080952;28;20054;-83
2023/08/28 13:35:48;;;;;;;23.48;5.90;;;;;;;;;;5089362;28;20028;-83
2023/08/28 13:38:18;;;;;;;17.27;5.88;;;;;;;;;;5073369;28;20020;-84
2023/08/28 13:40:44;;;;;;;12.38;5.32;;;;;;;;;;5076045;28;20029;-84
2023/08/28 13:43:10;;;;;;;13.90;5.57;;;;;;;;;;5080072;28;20036;-84
2023/08/28 13:45:36;;;;;;;18.13;6.32;;;;;;;;;;5095423;28;20097;-82
2023/08/28 13:48:03;;;;;;;17.20;6.40;;;;;;;;;;5074290;28;20037;-83
2023/08/28 13:50:29;;;;;;;13.23;5.53;;;;;;;;;;5075122;28;20115;-83
2023/08/28 13:52:55;;;;;;;11.32;5.32;;;;;;;;;;5074709;28;20024;-82
2023/08/28 13:55:21;;;;;;;19.92;5.47;;;;;;;;;;5089233;28;20082;-83
2023/08/28 13:57:49;;;;;;;11.32;3.45;;;;;;;;;;5082913;28;20031;-82
2023/08/28 14:00:16;;;;;;;13.70;3.67;;;;;;;;;;5084730;28;20016;-81
2023/08/28 14:02:43;;;;;;;11.73;3.20;;;;;;;;;;5082238;28;20036;-83
2023/08/28 14:05:12;;;;;;;15.43;3.50;;;;;;;;;;5075357;28;20390;-82
2023/08/28 14:07:38;;;;;;;16.40;4.63;;;;;;;;;;5076283;28;20462;-85
2023/08/28 14:10:06;;;;;;;11.60;4.25;;;;;;;;;;5085276;28;20035;-79
2023/08/28 14:12:32;;;;;;;10.70;3.85;;;;;;;;;;5079195;28;20039;-82
2023/08/28 14:15:00;;;;;;;14.18;3.70;;;;;;;;;;5082706;28;20521;-86
2023/08/28 14:17:26;;;;;;;14.30;3.75;;;;;;;;;;5086322;28;20427;-83
2023/08/28 14:19:52;;;;;;;9.35;3.45;;;;;;;;;;5086121;28;20029;-85
2023/08/28 14:22:18;;;;;;;10.45;3.50;;;;;;;;;;5079777;28;20470;-85
2023/08/28 14:24:45;;;;;;;14.00;3.80;;;;;;;;;;5094812;28;20500;-84
2023/08/28 14:27:11;;;;;;;17.15;4.25;;;;;;;;;;5073636;28;20024;-83
2023/08/28 14:29:37;;;;;;;11.48;4.25;;;;;;;;;;5095500;28;20339;-84
2023/08/28 14:32:03;;;;;;;18.77;3.83;;;;;;;;;;5077009;28;20032;-84
2023/08/28 14:34:29;;;;;;;11.70;4.40;;;;;;;;;;5085519;28;20048;-82
2023/08/28 14:36:56;;;;;;;12.90;3.85;;;;;;;;;;5085833;28;20020;-83
2023/08/28 14:39:22;;;;;;;10.75;4.35;;;;;;;;;;5094343;28;20028;-84
2023/08/28 14:41:48;;;;;;;18.15;3.70;;;;;;;;;;5077298;28;20428;-84
2023/08/28 14:44:15;;;;;;;16.50;3.80;;;;;;;;;;5076104;28;20489;-82
2023/08/28 14:46:41;;;;;;;13.35;3.90;;;;;;;;;;5095285;28;20026;-82
2023/08/28 14:49:07;;;;;;;10.57;3.38;;;;;;;;;;5094113;28;20035;-84
2023/08/28 14:51:34;;;;;;;12.15;5.05;;;;;;;;;;5093960;28;20094;-83
2023/08/28 14:54:02;;;;;;;14.18;5.72;;;;;;;;;;5095011;28;20024;-82
2023/08/28 14:56:29;;;;;;;15.57;5.13;;;;;;;;;;5095282;28;20016;-83
2023/08/28 14:58:55;;;;;;;10.55;4.90;;;;;;;;;;5091604;28;20077;-84
2023/08/28 15:01:23;;;;;;;13.75;5.43;;;;;;;;;;5090043;28;20042;-83
2023/08/28 15:03:49;;;;;;;12.68;5.38;;;;;;;;;;5075160;28;20020;-84
2023/08/28 15:06:15;;;;;;;17.33;6.57;;;;;;;;;;5092167;28;20028;-82
2023/08/28 15:08:42;;;;;;;24.05;5.45;;;;;;;;;;5090533;28;20020;-84
2023/08/28 15:11:09;;;;;;;14.70;5.55;;;;;;;;;;5089024;28;20111;-83
2023/08/28 15:13:35;;;;;;;18.52;4.65;;;;;;;;;;5093537;28;20464;-83
2023/08/28 15:16:03;;;;;;;10.75;5.65;;;;;;;;;;5083853;28;20463;-79
2023/08/28 15:18:29;;;;;;;14.65;5.72;;;;;;;;;;5075218;28;20489;-83
2023/08/28 15:20:55;;;;;;;15.10;4.80;;;;;;;;;;5074596;28;20061;-83
2023/08/28 15:23:22;;;;;;;19.52;5.60;;;;;;;;;;5074135;28;20081;-85
2023/08/28 15:25:48;;;;;;;8.63;5.07;;;;;;;;;;5076733;28;20029;-83
2023/08/28 15:28:15;;;;;;;15.52;5.75;;;;;;;;;;5073132;28;20036;-82
2023/08/28 15:30:41;;;;;;;12.88;5.32;;;;;;;;;;5075267;28;20024;-83
2023/08/28 15:33:07;;;;;;;16.70;5.20;;;;;;;;;;5076601;28;20044;-83
2023/08/28 15:35:33;;;;;;;9.38;5.32;;;;;;;;;;5077121;28;20089;-84
2023/08/28 15:37:59;;;;;;;17.50;5.55;;;;;;;;;;5078138;28;20027;-85
2023/08/28 15:40:26;;;;;;;21.17;5.50;;;;;;;;;;5072337;28;20122;-83
2023/08/28 15:42:53;;;;;;;11.20;5.07;;;;;;;;;;5073146;28;20031;-83
2023/08/28 15:45:19;;;;;;;12.38;4.72;;;;;;;;;;5067673;28;20093;-84
2023/08/28 15:47:46;;;;;;;14.68;5.45;;;;;;;;;;5078971;28;20020;-84
2023/08/28 15:50:12;;;;;;;14.18;5.10;;;;;;;;;;5078400;28;20107;-85
2023/08/28 15:52:39;;;;;;;20.63;5.95;;;;;;;;;;5084141;28;20111;-82
2023/08/28 15:55:05;;;;;;;15.65;5.32;;;;;;;;;;5093718;28;20042;-83
2023/08/28 15:57:31;;;;;;;11.50;5.03;;;;;;;;;;5094125;28;20095;-83
2023/08/28 15:59:58;;;;;;;18.23;5.00;;;;;;;;;;5092846;28;20067;-83
2023/08/28 16:02:24;;;;;;;13.05;5.00;;;;;;;;;;5093740;28;20092;-85
2023/08/28 16:04:50;;;;;;;19.13;5.55;;;;;;;;;;5073219;28;20428;-83
2023/08/28 16:07:16;;;;;;;17.50;5.07;;;;;;;;;;5088732;28;20458;-82
2023/08/28 16:09:42;;;;;;;12.45;4.57;;;;;;;;;;5081678;28;20024;-84
2023/08/28 16:12:09;;;;;;;10.85;5.63;;;;;;;;;;5082953;28;20028;-86
2023/08/28 16:14:35;;;;;;;13.45;5.15;;;;;;;;;;5083769;28;20032;-85
2023/08/28 16:17:04;;;;;;;14.43;5.85;;;;;;;;;;5076808;28;20024;-85
2023/08/28 16:19:30;;;;;;;14.00;5.22;;;;;;;;;;5092494;28;20032;-84
2023/08/28 16:21:56;;;;;;;16.73;5.50;;;;;;;;;;5073563;28;20058;-83
2023/08/28 16:24:22;;;;;;;11.93;5.20;;;;;;;;;;5091169;28;20020;-82
2023/08/28 16:26:48;;;;;;;14.40;4.82;;;;;;;;;;5092193;28;20028;-84
2023/08/28 16:29:15;;;;;;;15.80;5.78;;;;;;;;;;5092149;28;20084;-84
2023/08/28 16:31:41;;;;;;;15.63;6.00;;;;;;;;;;5092440;28;20031;-84
2023/08/28 16:34:07;;;;;;;14.07;5.22;;;;;;;;;;5081450;28;20044;-81
2023/08/28 16:36:33;;;;;;;19.83;5.55;;;;;;;;;;5091972;28;20020;-84
2023/08/28 16:39:01;;;;;;;15.23;5.32;;;;;;;;;;5092299;28;20485;-82
2023/08/28 16:41:29;;;;;;;13.07;5.55;;;;;;;;;;5092437;28;20082;-85
2023/08/28 16:43:55;;;;;;;16.63;4.93;;;;;;;;;;5093105;28;20056;-84
2023/08/28 16:46:21;;;;;;;16.77;5.50;;;;;;;;;;5092286;28;20047;-84
2023/08/28 16:48:47;;;;;;;16.17;5.18;;;;;;;;;;5092354;28;20028;-84
2023/08/28 16:51:13;;;;;;;11.80;5.53;;;;;;;;;;5091959;28;20112;-83
2023/08/28 16:53:40;;;;;;;10.32;6.05;;;;;;;;;;5092243;28;20036;-86
2023/08/28 16:56:06;;;;;;;11.55;5.57;;;;;;;;;;5097161;28;20447;-83
2023/08/28 16:58:32;;;;;;;10.27;4.85;;;;;;;;;;5097126;28;20027;-83
2023/08/28 17:00:58;;;;;;;13.35;5.45;;;;;;;;;;5096354;28;20020;-83
2023/08/28 17:03:26;;;;;;;10.48;4.90;;;;;;;;;;5095674;28;20043;-85
2023/08/28 17:05:54;;;;;;;16.00;5.47;;;;;;;;;;5096144;28;20474;-87
2023/08/28 17:08:20;;;;;;;16.88;5.25;;;;;;;;;;5096060;28;20466;-84
2023/08/28 17:10:46;;;;;;;21.40;5.70;;;;;;;;;;5085902;28;20020;-86
2023/08/28 17:13:12;;;;;;;14.88;5.45;;;;;;;;;;5096004;28;20059;-83
2023/08/28 17:15:39;;;;;;;11.85;5.93;;;;;;;;;;5095908;28;20482;-85
2023/08/28 17:18:05;;;;;;;13.88;5.18;;;;;;;;;;5095790;28;20061;-85
2023/08/28 17:20:31;;;;;;;13.38;5.75;;;;;;;;;;5095827;28;20028;-83
2023/08/28 17:22:57;;;;;;;11.60;5.95;;;;;;;;;;5078599;28;20032;-86
2023/08/28 17:25:23;;;;;;;15.05;5.22;;;;;;;;;;5089269;28;20047;-85
2023/08/28 17:27:49;;;;;;;15.48;5.38;;;;;;;;;;5095814;28;20020;-86
2023/08/28 17:30:16;;;;;;;12.50;6.00;;;;;;;;;;5095679;28;20032;-86
2023/08/28 17:32:47;;;;;;;11.85;5.40;;;;;;;;;;5096858;28;20052;-87
2023/08/28 17:35:13;;;;;;;20.92;5.65;;;;;;;;;;5095770;28;20070;-85
2023/08/28 17:37:39;;;;;;;11.35;5.22;;;;;;;;;;5095735;28;20031;-85
2023/08/28 17:40:06;;;;;;;10.88;5.57;;;;;;;;;;5094874;28;20030;-86
2023/08/28 17:42:32;;;;;;;14.02;5.85;;;;;;;;;;5096553;28;20028;-85
2023/08/28 17:44:58;;;;;;;13.05;5.45;;;;;;;;;;5095420;28;20115;-84
2023/08/28 17:47:25;;;;;;;10.50;5.28;;;;;;;;;;5096255;28;20074;-85
2023/08/28 17:49:53;;;;;;;17.30;5.40;;;;;;;;;;5095391;28;20133;-85
2023/08/28 17:52:23;;;;;;;11.35;5.57;;;;;;;;;;5094864;28;20024;-84
2023/08/28 17:54:50;;;;;;;18.38;6.03;;;;;;;;;;5095210;28;20024;-83
2023/08/28 17:57:16;;;;;;;13.25;5.47;;;;;;;;;;5096575;28;20051;-86
2023/08/28 17:59:43;;;;;;;12.05;5.30;;;;;;;;;;5094852;28;20490;-83
2023/08/28 18:02:09;;;;;;;11.98;5.85;;;;;;;;;;5094875;28;20393;-83
2023/08/28 18:04:35;;;;;;;11.32;5.40;;;;;;;;;;5094607;28;20089;-85
2023/08/28 18:07:01;;;;;;;12.60;5.57;;;;;;;;;;5094567;28;20024;-83
2023/08/28 18:09:28;;;;;;;16.90;5.78;;;;;;;;;;5093864;28;20024;-86
2023/08/28 18:11:54;;;;;;;13.35;6.18;;;;;;;;;;5094896;28;20016;-83
2023/08/28 18:14:20;;;;;;;9.48;5.55;;;;;;;;;;5094145;28;20032;-83
2023/08/28 18:16:46;;;;;;;11.20;5.82;;;;;;;;;;5094824;28;20028;-83
2023/08/28 18:19:13;;;;;;;12.88;5.25;;;;;;;;;;5094771;28;20427;-83
2023/08/28 18:21:39;;;;;;;11.73;5.53;;;;;;;;;;5095720;28;20028;-83
2023/08/28 18:24:05;;;;;;;17.75;6.25;;;;;;;;;;5095765;28;20032;-86
2023/08/28 18:26:31;;;;;;;12.10;5.25;;;;;;;;;;5094586;28;20488;-84
2023/08/28 18:28:58;;;;;;;11.07;5.07;;;;;;;;;;5095493;28;20016;-83
2023/08/28 18:31:25;;;;;;;14.48;5.60;;;;;;;;;;5094514;28;20020;-85
2023/08/28 18:33:52;;;;;;;13.45;5.18;;;;;;;;;;5094417;28;20482;-87
2023/08/28 18:36:19;;;;;;;11.98;4.90;;;;;;;;;;5075281;28;20024;-85
2023/08/28 18:38:45;;;;;;;11.70;5.40;;;;;;;;;;5092654;28;20078;-84